Time;durP1;ratioP1;P1;durP2;ratioP2;P2;SDS_P1;SDS_P2;PMS_P1;PMS_P2;Temp;Humidity;BMP_temperature;BMP_pressure;BME280_temperature;BME280_humidity;BME280_pressure;Samples;Min_cycle;Max_cycle;Signal;HPM_P1;HPM_P2
2022/03/12 00:00:48;;;;;;;21.27;10.10;;;;;;;18.86;27.65;101255.16;5130745;27;20031;-69
2022/03/12 00:03:17;;;;;;;22.80;9.77;;;;;;;18.49;27.89;101256.53;5112130;28;20023;-70
2022/03/12 00:05:54;;;;;;;21.20;9.27;;;;;;;19.73;26.23;101257.94;5112273;27;20390;-70
2022/03/12 00:08:23;;;;;;;19.97;11.27;;;;;;;18.73;27.23;101254.78;5111883;28;20019;-70
2022/03/12 00:10:51;;;;;;;23.43;10.70;;;;;;;18.26;27.72;101254.75;5112405;28;20026;-70
2022/03/12 00:13:21;;;;;;;22.50;10.10;;;;;;;19.40;25.91;101263.72;5111678;28;20035;-69
2022/03/12 00:15:50;;;;;;;17.57;9.03;;;;;;;19.19;26.13;101256.59;5112085;28;20027;-70
2022/03/12 00:18:20;;;;;;;19.13;9.67;;;;;;;18.73;26.91;101273.31;5130822;28;20019;-70
2022/03/12 00:20:50;;;;;;;20.43;9.80;;;;;;;18.89;26.92;101267.47;5113080;27;20029;-69
2022/03/12 00:23:19;;;;;;;19.23;9.50;;;;;;;18.66;27.19;101279.75;5134411;27;20031;-69
2022/03/12 00:25:48;;;;;;;21.83;9.63;;;;;;;18.38;27.22;101266.66;5134501;27;20038;-69
2022/03/12 00:28:15;;;;;;;22.47;9.33;;;;;;;18.95;26.79;101275.19;5114667;27;20022;-70
2022/03/12 00:30:42;;;;;;;22.23;10.10;;;;;;;19.02;26.80;101281.97;5098531;28;20046;-70
2022/03/12 00:33:07;;;;;;;17.27;9.17;;;;;;;19.55;26.39;101275.50;5108756;27;20424;-69
2022/03/12 00:35:33;;;;;;;20.27;9.80;;;;;;;18.79;27.28;101286.34;5115193;27;20083;-70
2022/03/12 00:37:58;;;;;;;20.97;10.23;;;;;;;19.46;26.86;101289.97;5115128;27;20019;-70
2022/03/12 00:40:23;;;;;;;17.57;9.30;;;;;;;18.68;28.17;101293.78;5115177;27;20047;-70
2022/03/12 00:42:49;;;;;;;19.87;9.17;;;;;;;18.97;27.81;101294.50;5115611;27;20062;-69
2022/03/12 00:45:15;;;;;;;21.27;9.30;;;;;;;19.18;28.30;101292.84;5114844;27;20072;-70
2022/03/12 00:47:41;;;;;;;19.20;10.83;;;;;;;20.09;27.71;101286.53;5114759;27;20034;-69
2022/03/12 00:50:06;;;;;;;22.00;10.53;;;;;;;20.29;27.25;101283.03;5115635;27;20015;-70
2022/03/12 00:52:32;;;;;;;20.43;10.50;;;;;;;19.66;28.32;101298.91;5115855;27;20044;-70
2022/03/12 00:54:57;;;;;;;20.87;9.63;;;;;;;19.57;28.71;101299.28;5133332;27;20030;-70
2022/03/12 00:57:23;;;;;;;20.00;9.57;;;;;;;20.72;27.25;101296.22;5115382;27;20482;-70
2022/03/12 00:59:48;;;;;;;20.77;10.50;;;;;;;19.95;28.06;101295.06;5115898;27;20422;-70
2022/03/12 01:02:15;;;;;;;23.30;10.10;;;;;;;19.82;28.45;101300.03;5113342;27;20034;-70
2022/03/12 01:04:42;;;;;;;22.63;10.00;;;;;;;20.17;28.22;101300.31;5115587;27;20033;-70
2022/03/12 01:07:11;;;;;;;27.77;10.50;;;;;;;19.56;28.85;101313.44;5133498;27;20061;-70
2022/03/12 01:09:40;;;;;;;20.93;9.53;;;;;;;19.78;28.86;101314.31;5098307;27;20019;-70
2022/03/12 01:12:07;;;;;;;20.77;10.13;;;;;;;19.99;28.71;101301.97;5132894;27;20015;-70
2022/03/12 01:14:32;;;;;;;21.60;9.50;;;;;;;19.57;29.51;101316.03;5133274;27;20061;-69
2022/03/12 01:16:58;;;;;;;19.47;10.13;;;;;;;19.85;29.12;101308.78;5132822;27;20047;-70
2022/03/12 01:19:25;;;;;;;27.67;10.20;;;;;;;20.63;28.10;101301.91;5115031;27;20046;-70
2022/03/12 01:21:50;;;;;;;21.30;10.17;;;;;;;21.32;27.16;101296.09;5115240;27;20478;-70
2022/03/12 01:24:15;;;;;;;21.57;10.77;;;;;;;20.39;28.42;101304.72;5131654;27;20047;-70
2022/03/12 01:26:41;;;;;;;21.37;10.13;;;;;;;20.55;27.79;101302.22;5133526;27;20023;-70
2022/03/12 01:29:09;;;;;;;20.53;9.97;;;;;;;20.56;27.91;101305.75;5132726;27;20033;-70
2022/03/12 01:31:35;;;;;;;21.70;9.63;;;;;;;21.22;27.20;101305.41;5132239;27;20046;-70
2022/03/12 01:34:01;;;;;;;22.93;10.60;;;;;;;20.31;28.52;101312.16;5113989;27;20030;-70
2022/03/12 01:36:27;;;;;;;23.00;9.93;;;;;;;20.16;28.93;101306.56;5114225;27;20027;-70
2022/03/12 01:38:54;;;;;;;23.40;9.87;;;;;;;20.29;28.94;101308.69;5114193;27;20031;-70
2022/03/12 01:41:24;;;;;;;20.47;10.20;;;;;;;20.90;27.88;101304.28;5114478;27;20019;-70
2022/03/12 01:43:53;;;;;;;17.80;9.13;;;;;;;20.92;27.72;101313.03;5113866;27;20022;-70
2022/03/12 01:46:27;;;;;;;20.30;10.07;;;;;;;20.07;28.46;101309.63;5132465;27;20019;-70
2022/03/12 01:48:52;;;;;;;20.90;9.20;;;;;;;20.63;28.02;101310.72;5132757;27;20246;-69
2022/03/12 01:51:18;;;;;;;18.80;9.27;;;;;;;20.42;28.04;101314.34;5132473;27;20023;-69
2022/03/12 01:53:43;;;;;;;18.73;9.60;;;;;;;20.70;27.78;101303.38;5132710;27;20019;-70
2022/03/12 01:56:09;;;;;;;21.80;10.27;;;;;;;19.42;29.74;101312.22;5114072;27;20027;-70
2022/03/12 01:58:35;;;;;;;18.40;9.23;;;;;;;20.63;27.85;101308.06;5131770;27;20031;-70
2022/03/12 02:01:01;;;;;;;16.97;8.37;;;;;;;19.85;29.01;101330.00;5132737;27;20060;-70
2022/03/12 02:03:28;;;;;;;21.17;8.77;;;;;;;19.41;29.80;101326.41;5132261;27;20109;-70
2022/03/12 02:05:54;;;;;;;15.60;8.80;;;;;;;19.71;29.40;101323.44;5112915;27;20030;-70
2022/03/12 02:08:20;;;;;;;18.27;9.40;;;;;;;20.10;28.99;101312.13;5113870;27;20034;-69
2022/03/12 02:10:48;;;;;;;21.77;9.50;;;;;;;18.97;30.62;101331.59;5114390;27;20406;-70
2022/03/12 02:13:13;;;;;;;19.37;9.43;;;;;;;20.34;28.64;101317.31;5131024;27;20022;-70
2022/03/12 02:15:39;;;;;;;21.20;9.40;;;;;;;19.82;29.50;101318.63;5132297;27;20758;-70
2022/03/12 02:18:05;;;;;;;19.97;9.90;;;;;;;20.15;29.33;101318.13;5132031;27;20075;-70
2022/03/12 02:20:31;;;;;;;19.50;9.67;;;;;;;21.16;27.46;101326.97;5113674;27;20015;-70
2022/03/12 02:22:59;;;;;;;18.70;9.33;;;;;;;20.09;28.79;101333.44;5112499;27;20035;-70
2022/03/12 02:25:33;;;;;;;18.47;9.37;;;;;;;20.32;28.53;101327.16;5132018;27;20062;-70
2022/03/12 02:28:02;;;;;;;21.83;9.23;;;;;;;20.24;28.22;101327.47;5115323;27;20542;-70
2022/03/12 02:30:34;;;;;;;21.43;9.33;;;;;;;20.17;28.79;101321.56;5113938;27;20019;-70
2022/03/12 02:33:01;;;;;;;24.05;10.10;;;;;;;20.07;28.80;101332.63;5131241;27;20084;-70
2022/03/12 02:35:31;;;;;;;17.47;8.50;;;;;;;20.44;27.77;101329.28;5113056;27;20080;-70
2022/03/12 02:37:57;;;;;;;19.63;10.03;;;;;;;20.16;28.38;101330.44;5113499;27;20027;-69
2022/03/12 02:40:22;;;;;;;19.03;9.63;;;;;;;20.06;28.35;101333.53;5112301;27;20472;-70
2022/03/12 02:42:50;;;;;;;20.47;8.53;;;;;;;20.55;27.94;101325.28;5131319;27;20027;-70
2022/03/12 02:45:15;;;;;;;19.00;9.40;;;;;;;20.43;28.18;101327.53;5113444;27;20476;-70
2022/03/12 02:47:43;;;;;;;18.47;9.57;;;;;;;19.33;29.81;101328.50;5112739;27;20023;-70
2022/03/12 02:50:11;;;;;;;19.10;9.17;;;;;;;18.65;31.11;101333.63;5112383;27;20015;-69
2022/03/12 02:52:41;;;;;;;21.00;9.43;;;;;;;19.35;30.33;101329.28;5113293;27;20019;-70
2022/03/12 02:55:09;;;;;;;17.50;9.80;;;;;;;20.11;29.46;101337.75;5130939;27;20072;-70
2022/03/12 02:57:34;;;;;;;19.80;9.40;;;;;;;19.32;31.00;101337.38;5113324;27;20019;-70
2022/03/12 03:00:08;;;;;;;18.10;8.80;;;;;;;20.32;29.71;101337.78;5130633;27;20395;-69
2022/03/12 03:02:40;;;;;;;18.20;8.67;;;;;;;19.12;31.99;101340.75;5131502;27;20019;-70
2022/03/12 03:05:19;;;;;;;16.38;8.18;;;;;;;19.81;31.00;101346.06;5130749;27;20051;-70
2022/03/12 03:07:45;;;;;;;15.83;9.27;;;;;;;19.73;31.60;101347.25;5113732;28;20663;-70
2022/03/12 03:10:29;;;;;;;15.33;8.07;;;;;;;20.54;30.55;101339.47;5111227;28;20124;-69
2022/03/12 03:12:55;;;;;;;16.33;7.87;;;;;;;20.93;30.22;101342.19;5131733;28;20019;-70
2022/03/12 03:15:20;;;;;;;14.90;8.63;;;;;;;19.82;32.25;101346.91;5112055;28;20176;-70
2022/03/12 03:17:47;;;;;;;15.77;7.93;;;;;;;20.02;32.24;101351.41;5131748;28;20057;-70
2022/03/12 03:20:13;;;;;;;17.93;8.00;;;;;;;20.19;32.37;101350.69;5130852;28;20037;-70
2022/03/12 03:22:38;;;;;;;15.70;7.27;;;;;;;21.05;31.12;101343.41;5112601;28;20375;-70
2022/03/12 03:25:04;;;;;;;13.30;7.30;;;;;;;20.38;32.45;101350.78;5130884;28;20047;-70
2022/03/12 03:27:29;;;;;;;13.77;7.07;;;;;;;20.48;32.75;101346.81;5113350;28;20023;-70
2022/03/12 03:29:55;;;;;;;11.83;6.03;;;;;;;20.71;32.74;101355.56;5101175;28;20550;-70
2022/03/12 03:32:21;;;;;;;12.73;6.13;;;;;;;20.25;33.55;101352.22;5131204;28;20031;-70
2022/03/12 03:34:47;;;;;;;12.03;6.17;;;;;;;20.80;33.10;101341.00;5112525;28;20027;-70
2022/03/12 03:37:12;;;;;;;9.63;5.43;;;;;;;19.55;35.70;101359.44;5112149;28;20574;-69
2022/03/12 03:39:39;;;;;;;8.33;4.63;;;;;;;20.34;34.85;101351.81;5112651;28;20027;-69
2022/03/12 03:42:04;;;;;;;8.00;4.53;;;;;;;19.67;37.09;101365.16;5111791;28;20491;-70
2022/03/12 03:44:30;;;;;;;6.77;3.20;;;;;;;18.36;39.67;101361.97;5130527;28;20034;-70
2022/03/12 03:46:56;;;;;;;4.67;3.43;;;;;;;19.43;38.05;101361.66;5113010;28;20030;-69
2022/03/12 03:49:21;;;;;;;5.57;3.03;;;;;;;19.80;36.99;101360.22;5130545;28;20038;-70
2022/03/12 03:51:47;;;;;;;5.73;2.80;;;;;;;19.46;37.55;101361.53;5130301;28;20023;-69
2022/03/12 03:54:15;;;;;;;4.53;2.90;;;;;;;19.04;38.40;101364.91;5112013;27;20052;-70
2022/03/12 03:56:41;;;;;;;5.50;3.10;;;;;;;19.22;38.13;101367.78;5116026;27;20020;-69
2022/03/12 03:59:07;;;;;;;7.43;3.37;;;;;;;18.85;38.79;101359.38;5115258;27;20031;-70
2022/03/12 04:01:33;;;;;;;6.17;3.10;;;;;;;18.28;39.91;101364.00;5134890;27;20095;-70
2022/03/12 04:03:58;;;;;;;5.63;3.00;;;;;;;17.86;40.78;101373.28;5115629;27;20031;-69
2022/03/12 04:06:25;;;;;;;5.10;3.00;;;;;;;17.83;41.17;101367.22;5115941;27;20149;-70
2022/03/12 04:08:51;;;;;;;4.23;2.70;;;;;;;18.38;40.20;101369.84;5116618;27;20446;-69
2022/03/12 04:11:26;;;;;;;4.80;2.97;;;;;;;18.67;39.24;101379.44;5115199;27;20070;-69
2022/03/12 04:13:53;;;;;;;4.33;3.03;;;;;;;18.82;38.91;101376.25;5134604;27;20083;-69
2022/03/12 04:16:20;;;;;;;4.83;3.10;;;;;;;18.79;39.31;101379.00;5134724;27;20030;-69
2022/03/12 04:18:47;;;;;;;5.77;3.40;;;;;;;18.77;38.82;101382.63;5115668;27;20058;-70
2022/03/12 04:21:14;;;;;;;3.63;2.57;;;;;;;18.41;39.95;101381.22;5115240;27;20031;-69
2022/03/12 04:23:40;;;;;;;5.57;2.90;;;;;;;18.36;40.51;101385.78;5134099;27;20499;-70
2022/03/12 04:26:06;;;;;;;4.60;2.60;;;;;;;19.43;37.72;101388.16;5114866;27;20176;-70
2022/03/12 04:28:32;;;;;;;5.27;2.97;;;;;;;19.06;38.46;101388.69;5134665;27;20058;-69
2022/03/12 04:31:02;;;;;;;4.70;2.73;;;;;;;19.58;38.35;101393.81;5134208;27;20115;-69
2022/03/12 04:33:29;;;;;;;4.63;2.90;;;;;;;19.15;38.00;101399.81;5114741;27;20035;-70
2022/03/12 04:35:55;;;;;;;4.00;2.47;;;;;;;18.04;41.12;101397.44;5116064;27;20019;-69
2022/03/12 04:38:21;;;;;;;4.50;2.93;;;;;;;18.92;39.10;101410.38;5115440;27;20046;-69
2022/03/12 04:40:47;;;;;;;4.93;3.27;;;;;;;19.45;38.05;101402.25;5114671;27;20031;-69
2022/03/12 04:43:12;;;;;;;3.97;2.70;;;;;;;19.57;37.38;101410.63;5133027;27;20470;-70
2022/03/12 04:45:39;;;;;;;3.73;2.50;;;;;;;19.55;37.45;101407.16;5134367;27;20030;-69
2022/03/12 04:48:06;;;;;;;4.23;2.70;;;;;;;18.48;39.66;101409.19;5114457;27;20106;-69
2022/03/12 04:50:31;;;;;;;4.30;2.70;;;;;;;18.53;39.43;101410.81;5134037;27;20023;-69
2022/03/12 04:52:58;;;;;;;4.90;3.00;;;;;;;18.50;39.87;101421.53;5133253;27;20440;-70
2022/03/12 04:55:29;;;;;;;6.20;3.03;;;;;;;18.21;40.53;101418.06;5114078;27;20422;-69
2022/03/12 04:57:54;;;;;;;6.17;3.00;;;;;;;19.08;38.57;101418.63;5115719;27;20053;-70
2022/03/12 05:00:26;;;;;;;5.20;3.00;;;;;;;18.65;39.41;101419.19;5114703;27;20023;-69
2022/03/12 05:03:13;;;;;;;4.97;2.67;;;;;;;18.39;40.36;101424.53;5114378;27;20019;-69
2022/03/12 05:05:44;;;;;;;6.67;3.13;;;;;;;17.88;40.62;101423.47;5115537;27;20414;-70
2022/03/12 05:08:14;;;;;;;4.20;2.80;;;;;;;18.44;40.29;101422.59;5132607;27;20035;-69
2022/03/12 05:10:45;;;;;;;5.60;2.93;;;;;;;18.70;39.85;101418.16;5115232;27;20440;-69
2022/03/12 05:13:12;;;;;;;4.97;2.67;;;;;;;18.76;39.53;101424.13;5114029;27;20446;-69
2022/03/12 05:15:39;;;;;;;5.10;3.07;;;;;;;18.82;39.24;101420.38;5114491;27;20035;-69
2022/03/12 05:18:11;;;;;;;6.60;2.57;;;;;;;17.90;41.21;101432.22;5115191;27;20427;-69
2022/03/12 05:20:39;;;;;;;4.72;3.58;;;;;;;18.57;40.26;101418.59;5115174;27;20525;-70
2022/03/12 05:23:07;;;;;;;4.70;3.03;;;;;;;18.58;39.93;101430.91;5113451;27;20041;-70
2022/03/12 05:25:34;;;;;;;4.33;2.57;;;;;;;17.94;41.06;101431.25;5114181;27;20043;-70
2022/03/12 05:27:59;;;;;;;5.50;3.00;;;;;;;18.68;39.09;101426.16;5133411;27;20019;-70
2022/03/12 05:30:27;;;;;;;4.63;2.80;;;;;;;19.19;38.41;101423.53;5114023;27;20500;-70
2022/03/12 05:32:53;;;;;;;5.17;3.33;;;;;;;18.65;39.53;101418.34;5133043;27;20099;-70
2022/03/12 05:35:20;;;;;;;4.47;2.93;;;;;;;18.98;39.04;101423.41;5114256;27;20023;-70
2022/03/12 05:37:47;;;;;;;8.77;3.23;;;;;;;19.25;38.37;101423.31;5113554;27;20031;-69
2022/03/12 05:40:18;;;;;;;4.90;3.10;;;;;;;18.68;39.14;101431.47;5113791;27;20027;-70
2022/03/12 05:42:44;;;;;;;7.13;3.40;;;;;;;19.15;38.27;101431.59;5133298;27;20498;-69
2022/03/12 05:45:10;;;;;;;5.60;3.23;;;;;;;19.18;38.07;101438.59;5131828;27;20106;-69
2022/03/12 05:47:39;;;;;;;4.80;3.30;;;;;;;19.09;38.56;101437.13;5114492;27;20389;-70
2022/03/12 05:50:09;;;;;;;7.43;3.20;;;;;;;18.95;38.50;101445.56;5113269;27;20023;-69
2022/03/12 05:52:36;;;;;;;7.90;3.73;;;;;;;18.81;38.62;101448.66;5114178;27;20076;-70
2022/03/12 05:55:05;;;;;;;7.20;3.83;;;;;;;18.18;40.01;101444.63;5113640;27;20019;-70
2022/03/12 05:57:31;;;;;;;7.23;3.70;;;;;;;19.20;37.98;101449.13;5113507;27;20019;-70
2022/03/12 05:59:57;;;;;;;6.00;3.37;;;;;;;19.13;38.15;101446.69;5131821;27;20019;-70
2022/03/12 06:02:22;;;;;;;5.73;3.90;;;;;;;18.99;37.93;101446.31;5114139;27;20027;-69
2022/03/12 06:04:48;;;;;;;5.17;3.60;;;;;;;18.91;38.21;101449.22;5113547;27;20023;-69
2022/03/12 06:07:14;;;;;;;5.57;3.53;;;;;;;18.85;38.84;101459.16;5131729;27;20027;-70
2022/03/12 06:09:40;;;;;;;7.70;3.67;;;;;;;18.56;39.00;101463.66;5113853;27;20011;-70
2022/03/12 06:12:13;;;;;;;6.70;3.27;;;;;;;18.15;40.11;101464.09;5113579;27;20007;-70
2022/03/12 06:14:39;;;;;;;7.63;3.53;;;;;;;18.89;38.35;101458.16;5132391;27;20050;-70
2022/03/12 06:17:04;;;;;;;6.67;3.57;;;;;;;18.70;39.36;101466.72;5105936;28;20486;-69
2022/03/12 06:19:30;;;;;;;6.50;3.73;;;;;;;18.73;38.96;101466.59;5110824;27;20084;-69
2022/03/12 06:21:57;;;;;;;6.23;2.97;;;;;;;19.20;38.40;101470.31;5131481;27;20015;-69
2022/03/12 06:24:22;;;;;;;5.60;3.50;;;;;;;18.24;40.63;101473.50;5109479;28;20058;-69
2022/03/12 06:26:48;;;;;;;8.40;3.47;;;;;;;19.00;38.83;101479.84;5110422;28;20026;-69
2022/03/12 06:29:13;;;;;;;5.33;2.97;;;;;;;17.89;41.29;101481.59;5108626;28;20057;-69
2022/03/12 06:31:40;;;;;;;7.63;3.40;;;;;;;18.74;39.44;101484.22;5111562;28;20031;-69
2022/03/12 06:34:06;;;;;;;6.17;3.30;;;;;;;19.44;37.82;101480.03;5109444;28;20023;-70
2022/03/12 06:36:32;;;;;;;7.77;3.67;;;;;;;19.08;38.65;101483.09;5112444;27;20029;-70
2022/03/12 06:38:58;;;;;;;8.63;3.70;;;;;;;18.53;40.13;101495.53;5110212;28;20026;-70
2022/03/12 06:41:23;;;;;;;8.30;3.20;;;;;;;19.13;38.78;101490.88;5110374;27;20024;-70
2022/03/12 06:43:50;;;;;;;6.60;3.67;;;;;;;19.30;38.00;101479.66;5088813;28;20032;-70
2022/03/12 06:46:16;;;;;;;6.40;3.13;;;;;;;19.27;38.30;101485.94;5108435;28;20023;-69
2022/03/12 06:48:42;;;;;;;6.43;3.73;;;;;;;19.63;37.38;101489.94;5111734;28;20547;-70
2022/03/12 06:51:10;;;;;;;6.17;3.23;;;;;;;19.49;37.81;101488.69;5108208;28;20019;-69
2022/03/12 06:53:37;;;;;;;5.83;3.83;;;;;;;19.97;36.50;101489.53;5109039;28;20024;-70
2022/03/12 06:56:03;;;;;;;11.03;4.00;;;;;;;20.60;36.30;101503.88;5111197;28;20109;-69
2022/03/12 06:58:29;;;;;;;7.10;4.17;;;;;;;19.40;38.02;101493.44;5109821;28;20020;-69
2022/03/12 07:00:55;;;;;;;6.57;3.40;;;;;;;19.02;39.15;101504.50;5109022;28;20115;-70
2022/03/12 07:03:21;;;;;;;9.40;3.53;;;;;;;18.98;38.91;101508.16;5110521;28;20478;-69
2022/03/12 07:05:46;;;;;;;6.40;3.67;;;;;;;19.67;38.25;101505.69;5109283;28;20085;-70
2022/03/12 07:08:12;;;;;;;6.60;3.30;;;;;;;18.50;40.13;101506.22;5109251;28;20085;-70
2022/03/12 07:10:37;;;;;;;7.73;3.57;;;;;;;18.51;40.48;101513.25;5110015;28;20019;-69
2022/03/12 07:13:03;;;;;;;5.70;3.30;;;;;;;18.02;41.16;101511.22;5109216;28;20015;-70
2022/03/12 07:15:29;;;;;;;5.83;3.70;;;;;;;18.99;39.27;101517.84;5109457;28;20471;-69
2022/03/12 07:17:55;;;;;;;4.87;3.27;;;;;;;19.20;39.06;101523.31;5111208;28;20395;-69
2022/03/12 07:20:20;;;;;;;6.00;3.37;;;;;;;18.75;40.45;101532.75;5110679;28;20019;-69
2022/03/12 07:22:47;;;;;;;7.23;3.73;;;;;;;18.65;40.54;101537.47;5110420;28;20024;-69
2022/03/12 07:25:13;;;;;;;6.43;3.70;;;;;;;17.96;41.88;101540.50;5108581;28;20054;-69
2022/03/12 07:27:39;;;;;;;5.03;3.47;;;;;;;18.68;40.66;101547.97;5107662;28;20388;-69
2022/03/12 07:30:06;;;;;;;9.07;3.40;;;;;;;18.16;41.49;101554.91;5103366;28;20023;-69
2022/03/12 07:32:32;;;;;;;5.57;3.50;;;;;;;19.13;39.25;101555.31;5109117;28;20027;-69
2022/03/12 07:34:58;;;;;;;5.17;3.33;;;;;;;18.46;41.03;101561.03;5113651;28;20068;-69
2022/03/12 07:37:23;;;;;;;3.77;2.60;;;;;;;18.21;41.41;101563.56;5107781;28;20032;-69
2022/03/12 07:39:49;;;;;;;6.77;3.93;;;;;;;17.87;42.45;101565.41;5104083;28;20034;-69
2022/03/12 07:42:14;;;;;;;9.00;3.13;;;;;;;18.57;40.90;101571.28;5113142;28;20066;-68
2022/03/12 07:44:40;;;;;;;6.50;3.47;;;;;;;19.08;39.91;101572.28;5112923;28;20122;-69
2022/03/12 07:47:07;;;;;;;8.30;3.10;;;;;;;19.29;39.25;101570.72;5113259;28;20050;-69
2022/03/12 07:49:34;;;;;;;5.20;3.03;;;;;;;19.33;39.47;101572.34;5110995;28;20057;-70
2022/03/12 07:52:00;;;;;;;6.30;3.60;;;;;;;19.46;39.24;101578.91;5112686;28;20023;-70
2022/03/12 07:54:25;;;;;;;7.77;3.57;;;;;;;19.44;39.45;101586.06;5113607;28;20384;-69
2022/03/12 07:56:51;;;;;;;8.90;4.03;;;;;;;19.64;38.59;101587.13;5112967;28;20022;-70
2022/03/12 07:59:17;;;;;;;7.23;3.93;;;;;;;19.26;39.41;101592.00;5112462;28;20165;-70
2022/03/12 08:01:42;;;;;;;4.73;3.27;;;;;;;19.80;38.11;101598.94;5113456;28;20489;-70
2022/03/12 08:04:08;;;;;;;9.87;4.07;;;;;;;20.67;36.57;101587.66;5111774;28;20112;-70
2022/03/12 08:06:34;;;;;;;4.77;3.67;;;;;;;21.17;35.66;101598.03;5112801;28;20110;-70
2022/03/12 08:09:00;;;;;;;6.67;3.37;;;;;;;20.36;37.14;101588.91;5112442;28;20027;-70
2022/03/12 08:11:28;;;;;;;5.23;3.37;;;;;;;18.82;40.75;101614.59;5112287;28;20026;-70
2022/03/12 08:14:02;;;;;;;10.73;3.77;;;;;;;18.87;40.10;101600.34;5112494;28;20114;-70
2022/03/12 08:16:29;;;;;;;6.40;3.40;;;;;;;18.68;40.98;101616.81;5112517;28;20059;-70
2022/03/12 08:18:55;;;;;;;6.13;3.40;;;;;;;18.07;41.72;101609.81;5111732;28;20510;-70
2022/03/12 08:21:21;;;;;;;8.40;3.40;;;;;;;19.14;39.52;101610.03;5112483;28;20496;-69
2022/03/12 08:23:47;;;;;;;6.03;3.43;;;;;;;18.30;41.26;101616.22;5112620;28;20088;-70
2022/03/12 08:26:13;;;;;;;8.00;3.23;;;;;;;20.39;37.95;101612.66;5111149;28;20031;-70
2022/03/12 08:28:39;;;;;;;6.63;4.30;;;;;;;18.88;40.47;101628.59;5112203;28;20106;-70
2022/03/12 08:31:05;;;;;;;8.00;3.33;;;;;;;18.96;39.79;101622.13;5112382;28;20024;-70
2022/03/12 08:33:31;;;;;;;4.77;3.30;;;;;;;18.54;41.14;101629.63;5110932;28;20025;-70
2022/03/12 08:35:57;;;;;;;8.43;3.70;;;;;;;19.34;39.42;101627.03;5112566;28;20028;-70
2022/03/12 08:38:25;;;;;;;6.57;3.53;;;;;;;19.18;39.55;101631.13;5112495;28;20379;-70
2022/03/12 08:40:51;;;;;;;6.60;3.00;;;;;;;19.14;39.28;101631.25;5112910;28;20102;-70
2022/03/12 08:43:17;;;;;;;6.60;3.40;;;;;;;19.66;38.24;101639.19;5113616;28;20106;-70
2022/03/12 08:45:42;;;;;;;6.57;3.40;;;;;;;20.07;37.16;101632.47;5112512;28;20024;-70
2022/03/12 08:48:09;;;;;;;8.73;3.47;;;;;;;19.35;38.39;101642.03;5112243;28;20034;-70
2022/03/12 08:50:34;;;;;;;6.00;3.23;;;;;;;19.47;38.17;101643.41;5111938;28;20015;-70
2022/03/12 08:53:00;;;;;;;4.60;3.00;;;;;;;19.91;37.81;101637.50;5111474;28;20034;-70
2022/03/12 08:55:25;;;;;;;8.77;3.30;;;;;;;18.80;39.40;101642.03;5112191;28;20019;-70
2022/03/12 08:57:52;;;;;;;4.27;2.60;;;;;;;19.78;38.18;101642.31;5113453;28;20023;-69
2022/03/12 09:00:19;;;;;;;6.23;2.90;;;;;;;20.95;35.95;101642.34;5110674;28;20468;-70
2022/03/12 09:02:46;;;;;;;5.57;2.87;;;;;;;20.83;35.47;101638.44;5095374;28;20036;-70
2022/03/12 09:05:14;;;;;;;6.77;3.00;;;;;;;20.11;37.13;101656.19;5111319;28;20463;-69
2022/03/12 09:07:41;;;;;;;5.03;3.07;;;;;;;19.78;37.70;101659.13;5112776;28;20131;-69
2022/03/12 09:10:11;;;;;;;8.30;2.93;;;;;;;21.39;34.60;101647.63;5098520;28;20082;-69
2022/03/12 09:12:37;;;;;;;6.83;3.07;;;;;;;20.26;36.09;101646.75;5106696;28;20024;-69
2022/03/12 09:15:04;;;;;;;5.23;3.20;;;;;;;20.07;36.44;101649.28;5112337;27;20053;-69
2022/03/12 09:17:29;;;;;;;6.17;2.60;;;;;;;20.21;36.48;101639.91;5111809;28;20023;-69
2022/03/12 09:19:55;;;;;;;6.23;3.13;;;;;;;21.51;34.62;101640.91;5111949;28;20261;-69
2022/03/12 09:22:20;;;;;;;8.63;2.80;;;;;;;21.93;33.18;101636.47;5110804;28;20386;-69
2022/03/12 09:24:46;;;;;;;5.97;2.40;;;;;;;21.27;34.38;101642.84;5111754;28;20063;-69
2022/03/12 09:27:11;;;;;;;8.00;3.03;;;;;;;22.48;31.88;101644.56;5112358;28;20447;-70
2022/03/12 09:29:38;;;;;;;4.90;2.50;;;;;;;22.44;31.91;101647.47;5109192;27;20085;-72
2022/03/12 09:32:05;;;;;;;4.63;2.60;;;;;;;20.78;34.63;101662.50;5110977;28;20030;-71
2022/03/12 09:34:30;;;;;;;6.80;2.75;;;;;;;20.30;35.46;101660.81;5113053;28;20016;-70
2022/03/12 09:36:55;;;;;;;5.38;2.70;;;;;;;19.69;36.40;101664.75;5109981;28;20031;-71
2022/03/12 09:39:21;;;;;;;5.30;2.30;;;;;;;19.91;35.80;101664.03;5110812;28;20076;-69
2022/03/12 09:41:47;;;;;;;8.00;2.95;;;;;;;21.06;34.00;101661.41;5110915;28;20118;-69
2022/03/12 09:44:12;;;;;;;6.20;2.40;;;;;;;20.75;34.65;101656.47;5109601;28;20057;-71
2022/03/12 09:46:38;;;;;;;6.88;3.03;;;;;;;19.61;36.31;101661.50;5110099;28;20383;-71
2022/03/12 09:49:04;;;;;;;5.38;2.85;;;;;;;19.81;35.86;101674.94;5096326;28;20031;-71
2022/03/12 09:51:31;;;;;;;3.80;2.90;;;;;;;20.67;35.26;101673.50;5110919;28;20030;-71
2022/03/12 09:53:57;;;;;;;5.35;2.70;;;;;;;20.83;34.04;101671.16;5109655;28;20057;-71
2022/03/12 09:56:24;;;;;;;4.95;2.83;;;;;;;19.47;36.64;101670.78;5110062;28;20028;-71
2022/03/12 09:58:49;;;;;;;5.95;2.63;;;;;;;21.01;34.70;101674.00;5111881;28;20421;-71
2022/03/12 10:01:14;;;;;;;5.47;2.42;;;;;;;21.66;33.15;101679.31;5110503;28;20447;-71
2022/03/12 10:03:42;;;;;;;7.60;2.85;;;;;;;21.48;32.79;101687.09;5111337;27;20546;-71
2022/03/12 10:06:07;;;;;;;7.43;3.03;;;;;;;20.73;33.51;101680.44;5108688;28;20134;-71
2022/03/12 10:08:33;;;;;;;3.10;2.25;;;;;;;22.79;30.90;101675.09;5107024;28;20406;-71
2022/03/12 10:10:59;;;;;;;4.85;2.28;;;;;;;21.32;32.60;101692.22;5109768;28;20022;-71
2022/03/12 10:13:24;;;;;;;4.28;2.25;;;;;;;20.88;32.69;101683.41;5111724;28;20213;-71
2022/03/12 10:15:49;;;;;;;8.43;2.97;;;;;;;22.23;30.90;101681.22;5101203;28;20119;-71
2022/03/12 10:18:15;;;;;;;12.32;2.58;;;;;;;21.66;31.34;101687.28;5108679;28;20072;-71
2022/03/12 10:20:40;;;;;;;9.32;2.50;;;;;;;22.61;30.21;101675.97;5111969;28;20020;-71
2022/03/12 10:23:07;;;;;;;4.85;2.42;;;;;;;22.59;30.63;101684.03;5110915;28;20425;-69
2022/03/12 10:25:33;;;;;;;5.15;2.33;;;;;;;21.27;31.93;101690.69;5109000;28;20053;-71
2022/03/12 10:27:58;;;;;;;7.75;2.63;;;;;;;22.84;30.10;101683.72;5108895;28;20028;-71
2022/03/12 10:30:24;;;;;;;7.20;2.47;;;;;;;23.21;30.04;101684.59;5111080;28;20434;-71
2022/03/12 10:32:50;;;;;;;5.90;2.60;;;;;;;24.18;28.80;101678.75;5109433;28;20100;-69
2022/03/12 10:35:19;;;;;;;5.80;2.67;;;;;;;24.91;27.85;101682.78;5110756;28;20482;-71
2022/03/12 10:37:48;;;;;;;3.97;1.88;;;;;;;23.78;28.89;101690.66;5109819;28;20118;-71
2022/03/12 10:40:21;;;;;;;6.25;1.98;;;;;;;23.52;29.19;101683.06;5110326;28;20070;-71
2022/03/12 10:42:50;;;;;;;6.57;1.90;;;;;;;23.96;28.77;101688.84;5091650;28;20067;-71
2022/03/12 10:45:20;;;;;;;8.32;2.63;;;;;;;22.60;30.81;101695.53;5109478;28;20035;-71
2022/03/12 10:47:52;;;;;;;4.72;2.30;;;;;;;23.92;29.30;101687.28;5109836;28;20024;-69
2022/03/12 10:50:25;;;;;;;3.92;2.30;;;;;;;22.22;31.36;101690.19;5109992;28;20491;-69
2022/03/12 10:52:53;;;;;;;4.95;2.03;;;;;;;24.13;29.06;101696.81;5108996;28;20023;-69
2022/03/12 10:55:34;;;;;;;9.75;2.28;;;;;;;25.33;27.47;101683.06;5110502;28;20027;-69
2022/03/12 10:58:12;;;;;;;4.60;2.20;;;;;;;22.97;30.25;101694.66;5108937;28;20031;-69
2022/03/12 11:00:40;;;;;;;7.05;2.53;;;;;;;23.52;29.48;101696.41;5109459;28;20474;-69
2022/03/12 11:03:13;;;;;;;7.28;2.55;;;;;;;22.43;30.37;101697.19;5109542;28;20020;-69
2022/03/12 11:05:41;;;;;;;5.18;1.88;;;;;;;22.58;30.61;101698.28;5090754;28;20028;-69
2022/03/12 11:08:15;;;;;;;6.63;2.25;;;;;;;23.72;29.09;101697.16;5108329;28;20061;-70
2022/03/12 11:11:00;;;;;;;7.00;2.33;;;;;;;24.48;28.64;101696.72;5110152;28;20033;-69
2022/03/12 11:13:40;;;;;;;5.00;2.42;;;;;;;24.67;28.17;101693.91;5109601;28;20398;-69
2022/03/12 11:16:12;;;;;;;7.80;2.70;;;;;;;23.99;29.11;101704.72;5104574;28;20386;-69
2022/03/12 11:19:07;;;;;;;6.75;2.53;;;;;;;24.16;28.63;101707.34;5098187;28;20057;-70
2022/03/12 11:21:44;;;;;;;3.83;2.30;;;;;;;24.80;27.53;101707.44;5088263;28;20203;-70